createdAt,value
2022-11-08T00:05:44.449Z,95831.20
2022-11-08T00:08:44.392Z,95832.36
2022-11-08T00:11:46.940Z,95834.05
2022-11-08T00:14:34.968Z,95832.41
2022-11-08T00:20:15.532Z,95830.05
2022-11-08T00:29:21.549Z,95818.09
2022-11-08T00:31:58.229Z,95812.65
2022-11-08T00:34:28.405Z,95813.33
2022-11-08T00:37:13.013Z,95816.66
2022-11-08T00:43:11.703Z,95822.93
2022-11-08T00:48:23.511Z,95823.05
2022-11-08T00:51:02.341Z,95816.93
2022-11-08T00:53:31.563Z,95818.34
2022-11-08T00:56:05.427Z,95817.65
2022-11-08T00:58:40.822Z,95818.47
2022-11-08T01:01:15.605Z,95816.52
2022-11-08T01:03:46.833Z,95818.69
2022-11-08T01:06:24.293Z,95812.84
2022-11-08T01:09:01.521Z,95819.59
2022-11-08T01:11:49.090Z,95812.98
2022-11-08T01:14:19.654Z,95815.94
2022-11-08T01:16:52.899Z,95812.86
2022-11-08T01:19:23.532Z,95815.94
2022-11-08T01:21:56.975Z,95809.83
2022-11-08T01:24:41.693Z,95809.29
2022-11-08T01:27:11.912Z,95817.55
2022-11-08T01:29:41.149Z,95808.45
2022-11-08T01:32:19.650Z,95808.00
2022-11-08T01:34:53.151Z,95811.80
2022-11-08T01:37:19.604Z,95809.06
2022-11-08T01:39:50.494Z,95807.01
2022-11-08T01:42:23.944Z,95814.27
2022-11-08T01:45:13.798Z,95814.47
2022-11-08T01:47:48.951Z,95795.45
2022-11-08T01:50:26.742Z,95812.23
2022-11-08T01:52:58.780Z,95816.39
2022-11-08T01:55:37.633Z,95810.19
2022-11-08T01:58:12.267Z,95805.91
2022-11-08T02:00:44.901Z,95807.09
2022-11-08T02:03:51.706Z,95810.47
2022-11-08T02:06:21.035Z,95815.12
2022-11-08T02:08:50.614Z,95818.06
2022-11-08T02:11:22.790Z,95817.68
2022-11-08T02:13:51.794Z,95811.25
2022-11-08T02:16:25.364Z,95815.80
2022-11-08T02:19:00.200Z,95813.55
2022-11-08T02:21:34.145Z,95817.48
2022-11-08T02:24:06.224Z,95812.06
2022-11-08T02:26:42.489Z,95815.25
2022-11-08T02:33:32.875Z,95816.58
2022-11-08T02:36:06.399Z,95812.91
2022-11-08T02:38:40.101Z,95814.25
2022-11-08T02:41:09.091Z,95813.53
2022-11-08T02:43:39.599Z,95816.42
2022-11-08T02:46:10.212Z,95817.97
2022-11-08T02:48:41.237Z,95814.86
2022-11-08T02:51:16.454Z,95815.42
2022-11-08T02:53:48.408Z,95806.78
2022-11-08T02:56:18.939Z,95720.45
2022-11-08T02:58:49.609Z,95812.24
2022-11-08T03:01:18.711Z,95813.66
2022-11-08T03:03:52.049Z,95813.66
2022-11-08T03:06:51.303Z,95811.80
2022-11-08T03:09:26.488Z,95813.91
2022-11-08T03:11:58.529Z,95813.73
2022-11-08T03:14:29.029Z,95815.63
2022-11-08T03:16:59.546Z,95819.12
2022-11-08T03:19:31.502Z,95819.60
2022-11-08T03:22:01.990Z,95828.45
2022-11-08T03:25:11.291Z,95826.52
2022-11-08T03:27:41.542Z,95821.87
2022-11-08T03:30:10.371Z,95823.44
2022-11-08T03:32:38.965Z,95826.67
2022-11-08T03:35:08.419Z,95822.55
2022-11-08T03:37:37.024Z,95826.23
2022-11-08T03:40:06.237Z,95830.00
2022-11-08T03:42:35.461Z,95826.55
2022-11-08T03:45:04.074Z,95830.44
2022-11-08T03:47:32.730Z,95827.49
2022-11-08T03:50:01.322Z,95830.64
2022-11-08T03:52:29.996Z,95830.69
2022-11-08T03:54:58.547Z,95827.53
2022-11-08T03:57:27.273Z,95827.77
2022-11-08T03:59:56.011Z,95828.09
2022-11-08T04:02:48.945Z,95828.17
2022-11-08T04:05:14.902Z,95827.77
2022-11-08T04:07:43.933Z,95827.20
2022-11-08T04:10:13.571Z,95823.38
2022-11-08T04:13:01.425Z,95820.20
2022-11-08T04:15:32.089Z,95818.17
2022-11-08T04:18:19.078Z,95816.51
2022-11-08T04:21:07.608Z,95813.27
2022-11-08T04:26:28.122Z,95816.58
2022-11-08T04:28:56.869Z,95813.98
2022-11-08T04:31:25.526Z,95810.73
2022-11-08T04:33:54.112Z,95805.27
2022-11-08T04:36:31.054Z,95808.21
2022-11-08T04:38:57.117Z,95811.25
2022-11-08T04:41:26.762Z,95814.33
2022-11-08T04:43:58.400Z,95812.27
2022-11-08T04:46:30.091Z,95808.55
2022-11-08T04:49:02.775Z,95812.14
2022-11-08T04:51:33.671Z,95812.98
2022-11-08T04:54:05.934Z,95820.35
2022-11-08T04:56:34.714Z,95822.38
2022-11-08T04:59:06.150Z,95834.05
2022-11-08T05:01:33.696Z,95832.28
2022-11-08T05:04:02.351Z,95836.59
2022-11-08T05:06:32.907Z,95829.41
2022-11-08T05:09:01.768Z,95831.26
2022-11-08T05:11:32.221Z,95833.48
2022-11-08T05:14:00.983Z,95835.73
2022-11-08T05:16:32.381Z,95836.36
2022-11-08T05:19:01.861Z,95841.77
2022-11-08T05:21:48.393Z,95839.31
2022-11-08T05:24:18.744Z,95834.64
2022-11-08T05:26:49.475Z,95840.67
2022-11-08T05:29:18.338Z,95836.03
2022-11-08T05:31:47.057Z,95839.86
2022-11-08T05:34:17.392Z,95848.06
2022-11-08T05:36:45.931Z,95835.25
2022-11-08T05:39:14.655Z,95836.39
2022-11-08T05:41:43.467Z,95835.90
2022-11-08T05:44:13.515Z,95838.33
2022-11-08T05:46:42.293Z,95835.74
2022-11-08T05:49:11.006Z,95839.83
2022-11-08T05:51:39.645Z,95842.16
2022-11-08T05:54:08.321Z,95845.16
2022-11-08T05:56:37.548Z,95854.95
2022-11-08T05:59:06.390Z,95855.16
2022-11-08T06:01:37.938Z,95848.44
2022-11-08T06:04:06.519Z,95855.51
2022-11-08T06:06:35.290Z,95859.79
2022-11-08T06:09:03.976Z,95863.23
2022-11-08T06:11:32.623Z,95866.31
2022-11-08T06:14:02.754Z,95870.11
2022-11-08T06:16:31.502Z,95872.48
2022-11-08T06:19:02.879Z,95873.94
2022-11-08T06:21:44.010Z,95876.72
2022-11-08T06:24:12.075Z,95881.17
2022-11-08T06:26:40.657Z,95882.91
2022-11-08T06:29:09.547Z,95887.48
2022-11-08T06:31:42.729Z,95886.11
2022-11-08T06:34:10.381Z,95887.68
2022-11-08T06:36:40.617Z,95897.89
2022-11-08T06:39:12.320Z,95896.54
2022-11-08T06:41:46.290Z,95897.52
2022-11-08T06:44:20.563Z,95905.38
2022-11-08T06:46:53.425Z,95899.02
2022-11-08T06:49:25.360Z,95900.52
2022-11-08T06:51:58.932Z,95899.97
2022-11-08T06:54:30.306Z,95891.58
2022-11-08T06:57:03.895Z,95906.66
2022-11-08T06:59:43.759Z,95911.55
2022-11-08T07:02:13.142Z,95908.09
2022-11-08T07:04:42.094Z,95907.92
2022-11-08T07:07:13.351Z,95906.78
2022-11-08T07:09:43.999Z,95911.56
2022-11-08T07:12:12.655Z,95906.69
2022-11-08T07:14:41.387Z,95915.63
2022-11-08T07:17:10.070Z,95915.19
2022-11-08T07:19:55.351Z,95917.72
2022-11-08T07:22:25.870Z,95919.33
2022-11-08T07:24:57.684Z,95915.00
2022-11-08T07:27:31.739Z,95916.32
2022-11-08T07:30:05.531Z,95921.67
2022-11-08T07:32:44.590Z,95922.42
2022-11-08T07:35:17.407Z,95921.59
2022-11-08T07:37:50.089Z,95917.58
2022-11-08T07:40:34.519Z,95917.28
2022-11-08T07:43:12.850Z,95918.52
2022-11-08T07:45:47.757Z,95928.83
2022-11-08T07:48:16.807Z,95925.95
2022-11-08T07:53:40.226Z,95920.66
2022-11-08T07:56:10.914Z,95916.02
2022-11-08T07:58:40.063Z,95919.34
2022-11-08T08:01:10.486Z,95922.72
2022-11-08T08:03:39.699Z,95917.81
2022-11-08T08:06:14.137Z,95915.84
2022-11-08T08:12:17.503Z,95924.42
2022-11-08T08:15:18.151Z,95920.48
2022-11-08T08:17:33.842Z,95920.20
2022-11-08T08:20:26.082Z,95923.36
2022-11-08T08:23:01.795Z,95916.67
2022-11-08T08:25:33.006Z,95919.51
2022-11-08T08:28:02.122Z,95924.19
2022-11-08T08:30:46.005Z,95926.95
2022-11-08T08:34:02.140Z,95910.09
2022-11-08T08:36:13.732Z,95928.58
2022-11-08T08:41:49.239Z,95921.77
2022-11-08T08:44:29.957Z,95923.59
2022-11-08T08:47:09.398Z,95923.50
2022-11-08T08:49:49.042Z,95910.46
2022-11-08T08:53:03.599Z,95933.70
2022-11-08T08:58:08.850Z,95937.95
2022-11-08T09:03:18.101Z,95935.02
2022-11-08T09:05:47.094Z,95935.59
2022-11-08T09:08:15.996Z,95933.12
2022-11-08T09:10:44.635Z,95933.08
2022-11-08T09:13:14.889Z,95940.80
2022-11-08T09:15:45.208Z,95931.99
2022-11-08T09:18:13.922Z,95935.16
2022-11-08T09:20:43.907Z,95928.73
2022-11-08T09:23:13.056Z,95938.78
2022-11-08T09:25:43.118Z,95923.08
2022-11-08T09:28:11.824Z,95921.53
2022-11-08T09:30:40.578Z,95932.09
2022-11-08T09:33:09.370Z,95930.64
2022-11-08T09:35:38.184Z,95926.94
2022-11-08T09:38:07.704Z,95927.45
2022-11-08T09:40:43.448Z,95912.05
2022-11-08T09:43:27.351Z,95927.51
2022-11-08T09:46:04.078Z,95928.09
2022-11-08T09:48:40.037Z,95921.09
2022-11-08T09:51:28.167Z,95916.83
2022-11-08T09:54:08.310Z,95917.41
2022-11-08T09:56:40.971Z,95921.05
2022-11-08T09:59:37.173Z,95916.08
2022-11-08T10:02:12.017Z,95913.03
2022-11-08T10:04:41.049Z,95914.89
2022-11-08T10:07:24.225Z,95910.05
2022-11-08T10:10:11.380Z,95912.62
2022-11-08T10:13:18.454Z,95906.00
2022-11-08T10:15:59.947Z,95898.53
2022-11-08T10:19:13.697Z,95896.92
2022-11-08T10:22:07.873Z,95891.22
2022-11-08T10:24:45.042Z,95891.39
2022-11-08T10:27:37.343Z,95885.53
2022-11-08T10:30:10.573Z,95890.00
2022-11-08T10:32:39.502Z,95879.51
2022-11-08T10:35:14.327Z,95878.48
2022-11-08T10:37:45.758Z,95873.97
2022-11-08T10:40:34.084Z,95873.48
2022-11-08T10:43:16.212Z,95859.20
2022-11-08T10:45:44.932Z,95867.93
2022-11-08T10:48:13.795Z,95868.20
2022-11-08T10:50:51.107Z,95866.62
2022-11-08T10:53:32.133Z,95861.06
2022-11-08T10:56:03.160Z,95860.28
2022-11-08T10:58:34.968Z,95859.95
2022-11-08T11:01:19.129Z,95861.42
2022-11-08T11:03:50.403Z,95856.00
2022-11-08T11:06:30.897Z,95855.75
2022-11-08T11:09:05.839Z,95853.89
2022-11-08T11:11:39.090Z,95850.02
2022-11-08T11:14:22.267Z,95855.17
2022-11-08T11:16:59.668Z,95844.31
2022-11-08T11:19:29.523Z,95843.88
2022-11-08T11:22:01.212Z,95846.67
2022-11-08T11:24:30.276Z,95838.80
2022-11-08T11:27:05.126Z,95835.41
2022-11-08T11:29:38.036Z,95839.48
2022-11-08T11:32:29.204Z,95837.41
2022-11-08T11:35:08.036Z,95840.94
2022-11-08T11:37:48.579Z,95837.23
2022-11-08T11:40:34.998Z,95825.16
2022-11-08T11:43:29.076Z,95830.33
2022-11-08T11:46:07.079Z,95825.53
2022-11-08T11:48:40.523Z,95833.14
2022-11-08T11:51:12.371Z,95832.80
2022-11-08T11:54:01.150Z,95829.00
2022-11-08T11:56:41.243Z,95825.36
2022-11-08T11:59:44.449Z,95824.02
2022-11-08T12:02:45.357Z,95817.30
2022-11-08T12:05:37.036Z,95818.67
2022-11-08T12:08:19.767Z,95815.96
2022-11-08T12:11:07.762Z,95818.22
2022-11-08T12:14:13.080Z,95822.48
2022-11-08T12:17:02.773Z,95821.05
2022-11-08T12:19:43.249Z,95815.52
2022-11-08T12:22:31.475Z,95812.42
2022-11-08T12:25:09.285Z,95806.70
2022-11-08T12:27:53.008Z,95801.73
2022-11-08T12:30:41.249Z,95807.31
2022-11-08T12:33:15.751Z,95802.45
2022-11-08T12:36:13.039Z,95798.26
2022-11-08T12:38:44.664Z,95798.66
2022-11-08T12:41:34.809Z,95803.06
2022-11-08T12:44:18.495Z,95791.17
2022-11-08T12:47:07.881Z,95794.80
2022-11-08T12:49:41.590Z,95798.06
2022-11-08T12:52:30.231Z,95793.22
2022-11-08T12:55:02.197Z,95789.54
2022-11-08T12:57:49.232Z,95797.83
2022-11-08T13:00:31.833Z,95793.03
2022-11-08T13:03:11.487Z,95790.31
2022-11-08T13:05:43.517Z,95792.44
2022-11-08T13:08:34.766Z,95791.66
2022-11-08T13:11:09.276Z,95793.22
2022-11-08T13:13:51.907Z,95794.95
2022-11-08T13:16:23.286Z,95789.05
2022-11-08T13:19:01.892Z,95792.52
2022-11-08T13:21:37.557Z,95791.19
2022-11-08T13:24:42.316Z,95787.72
2022-11-08T13:26:44.560Z,95786.73
2022-11-08T13:29:22.060Z,95790.59
2022-11-08T13:32:16.065Z,95791.36
2022-11-08T13:34:53.326Z,95793.27
2022-11-08T13:37:24.879Z,95790.02
2022-11-08T13:40:23.855Z,95790.20
2022-11-08T13:43:01.861Z,95795.95
2022-11-08T13:45:35.445Z,95800.55
2022-11-08T13:48:24.095Z,95802.48
2022-11-08T13:50:59.604Z,95796.67
2022-11-08T13:53:46.820Z,95801.47
2022-11-08T13:56:30.253Z,95801.66
2022-11-08T13:59:00.573Z,95797.42
2022-11-08T14:01:38.730Z,95800.86
2022-11-08T14:04:08.519Z,95799.30
2022-11-08T14:06:45.109Z,95796.95
2022-11-08T14:09:33.908Z,95795.41
2022-11-08T14:12:10.142Z,95799.80
2022-11-08T14:15:03.058Z,95798.84
2022-11-08T14:17:38.011Z,95795.39
2022-11-08T14:20:29.533Z,95792.92
2022-11-08T14:23:00.532Z,95791.75
2022-11-08T14:25:32.432Z,95789.97
2022-11-08T14:28:01.593Z,95797.06
2022-11-08T14:30:30.293Z,95796.03
2022-11-08T14:33:27.409Z,95801.17
2022-11-08T14:36:02.148Z,95794.13
2022-11-08T14:38:34.151Z,95798.11
2022-11-08T14:41:09.166Z,95800.53
2022-11-08T14:43:45.740Z,95797.80
2022-11-08T14:46:35.304Z,95810.02
2022-11-08T14:49:27.892Z,95805.95
2022-11-08T14:52:25.866Z,95798.20
2022-11-08T14:55:09.591Z,95799.63
2022-11-08T14:57:44.027Z,95797.80
2022-11-08T15:00:21.872Z,95799.62
2022-11-08T15:02:59.379Z,95799.36
2022-11-08T15:05:42.719Z,95794.14
2022-11-08T15:08:23.260Z,95799.83
2022-11-08T15:11:20.032Z,95799.37
2022-11-08T15:13:51.971Z,95795.73
2022-11-08T15:16:22.101Z,95801.14
2022-11-08T15:18:51.001Z,95803.56
2022-11-08T15:21:25.510Z,95799.15
2022-11-08T15:23:55.406Z,95797.68
2022-11-08T15:26:30.377Z,95802.35
2022-11-08T15:29:07.990Z,95799.39
2022-11-08T15:31:53.679Z,95799.51
2022-11-08T15:34:22.981Z,95798.19
2022-11-08T15:37:02.213Z,95800.20
2022-11-08T15:39:39.231Z,95799.84
2022-11-08T15:42:21.228Z,95802.52
2022-11-08T15:45:17.838Z,95801.92
2022-11-08T15:47:49.441Z,95802.72
2022-11-08T15:50:24.636Z,95803.66
2022-11-08T15:52:59.382Z,95807.94
2022-11-08T15:55:50.228Z,95811.55
2022-11-08T15:58:37.200Z,95810.41
2022-11-08T16:01:11.445Z,95805.62
2022-11-08T16:03:39.799Z,95812.20
2022-11-08T16:06:14.478Z,95814.27
2022-11-08T16:09:20.590Z,95817.84
2022-11-08T16:11:59.508Z,95817.52
2022-11-08T16:14:26.828Z,95817.89
2022-11-08T16:17:07.233Z,95826.44
2022-11-08T16:19:36.256Z,95819.24
2022-11-08T16:22:21.397Z,95817.22
2022-11-08T16:24:53.235Z,95820.12
2022-11-08T16:27:29.364Z,95821.17
2022-11-08T16:29:59.893Z,95815.99
2022-11-08T16:32:33.248Z,95822.02
2022-11-08T16:35:09.734Z,95825.28
2022-11-08T16:37:43.818Z,95832.52
2022-11-08T16:40:33.130Z,95830.18
2022-11-08T16:43:04.917Z,95819.33
2022-11-08T16:49:02.146Z,95836.08
2022-11-08T16:55:06.182Z,95839.61
2022-11-08T16:58:38.768Z,95839.54
2022-11-08T17:00:59.747Z,95849.36
2022-11-08T17:03:52.292Z,95855.89
2022-11-08T17:07:08.958Z,95853.87
2022-11-08T17:12:40.592Z,95856.47
2022-11-08T17:44:57.338Z,95886.77
2022-11-08T18:00:59.782Z,95880.39
2022-11-08T18:18:35.745Z,95879.75
2022-11-08T18:21:12.025Z,95875.14
2022-11-08T18:23:57.497Z,95881.81
2022-11-08T18:26:45.198Z,95869.87
2022-11-08T18:29:17.375Z,95886.19
2022-11-08T18:38:56.616Z,95880.64
2022-11-08T18:41:27.618Z,95876.15
2022-11-08T18:43:59.689Z,95877.81
2022-11-08T18:46:43.595Z,95878.62
2022-11-08T18:49:14.677Z,95881.29
2022-11-08T18:51:44.633Z,95882.95
2022-11-08T18:54:33.347Z,95882.95
2022-11-08T19:01:00.100Z,95888.38
2022-11-08T19:06:57.812Z,95893.80
2022-11-08T19:09:36.639Z,95891.20
2022-11-08T19:12:19.311Z,95899.09
2022-11-08T19:14:48.282Z,95901.43
2022-11-08T19:17:28.962Z,95904.73
2022-11-08T19:22:50.850Z,95899.13
2022-11-08T19:25:21.039Z,95904.19
2022-11-08T19:27:53.500Z,95904.97
2022-11-08T19:30:37.228Z,95907.14
2022-11-08T19:33:23.719Z,95908.13
2022-11-08T19:35:54.997Z,95910.14
2022-11-08T19:38:25.615Z,95917.03
2022-11-08T19:40:57.602Z,95918.48
2022-11-08T19:43:44.496Z,95917.38
2022-11-08T19:49:47.596Z,95917.14
2022-11-08T19:52:20.996Z,95920.73
2022-11-08T19:55:00.331Z,95921.83
2022-11-08T19:57:30.692Z,95923.78
2022-11-08T20:00:09.556Z,95922.94
2022-11-08T20:02:42.638Z,95921.19
2022-11-08T20:05:11.869Z,95916.27
2022-11-08T20:10:45.162Z,95920.68
2022-11-08T20:13:14.305Z,95925.46
2022-11-08T20:15:44.680Z,95919.98
2022-11-08T20:18:21.966Z,95920.94
2022-11-08T20:20:52.234Z,95925.95
2022-11-08T20:23:29.565Z,95925.25
2022-11-08T20:26:12.284Z,95926.51
2022-11-08T20:28:55.316Z,95926.17
2022-11-08T20:31:37.431Z,95925.20
2022-11-08T20:34:06.881Z,95930.09
2022-11-08T20:36:42.627Z,95935.22
2022-11-08T20:39:31.703Z,95937.70
2022-11-08T20:42:12.539Z,95932.36
2022-11-08T20:48:05.972Z,95926.80
2022-11-08T20:50:42.062Z,95927.22
2022-11-08T20:53:16.097Z,95926.00
2022-11-08T20:56:08.863Z,95928.52
2022-11-08T20:58:44.217Z,95928.19
2022-11-08T21:01:19.531Z,95927.86
2022-11-08T21:03:54.342Z,95921.11
2022-11-08T21:06:25.839Z,95880.80
2022-11-08T21:09:00.668Z,95939.16
2022-11-08T21:11:39.471Z,95936.02
2022-11-08T21:14:09.613Z,95935.72
2022-11-08T21:17:06.584Z,95934.37
2022-11-08T21:19:11.957Z,95927.81
2022-11-08T21:21:50.050Z,95933.02
2022-11-08T21:24:21.493Z,95931.63
2022-11-08T21:27:00.092Z,95937.70
2022-11-08T21:29:32.472Z,95935.95
2022-11-08T21:32:06.629Z,95938.66
2022-11-08T21:34:36.905Z,95932.09
2022-11-08T21:37:05.703Z,95927.39
2022-11-08T21:39:37.019Z,95931.87
2022-11-08T21:42:08.457Z,95925.24
2022-11-08T21:44:41.660Z,95930.19
2022-11-08T21:47:15.312Z,95935.03
2022-11-08T21:49:47.250Z,95933.72
2022-11-08T21:52:16.128Z,95927.64
2022-11-08T21:54:47.469Z,95924.44
2022-11-08T21:57:20.037Z,95927.34
2022-11-08T21:59:48.868Z,95928.61
2022-11-08T22:02:19.655Z,95928.27
2022-11-08T22:04:49.982Z,95931.82
2022-11-08T22:07:18.736Z,95931.62
2022-11-08T22:09:47.493Z,95932.80
2022-11-08T22:12:20.115Z,95928.72
2022-11-08T22:14:55.723Z,95931.60
2022-11-08T22:17:24.534Z,95938.69
2022-11-08T22:19:56.178Z,95939.37
2022-11-08T22:22:30.790Z,95942.03
2022-11-08T22:24:59.505Z,95938.05
2022-11-08T22:27:29.691Z,95939.16
2022-11-08T22:29:58.572Z,95941.59
2022-11-08T22:32:31.892Z,95939.03
2022-11-08T22:35:03.638Z,95934.95
2022-11-08T22:37:32.541Z,95935.17
2022-11-08T22:40:06.809Z,95932.73
2022-11-08T22:42:38.188Z,95936.06
2022-11-08T22:45:07.375Z,95939.93
2022-11-08T22:47:37.638Z,95938.72
2022-11-08T22:50:14.474Z,95941.72
2022-11-08T22:52:52.304Z,95936.95
2022-11-08T22:55:30.996Z,95932.97
2022-11-08T22:58:04.265Z,95941.15
2022-11-08T23:00:36.646Z,95888.91
2022-11-08T23:03:11.115Z,95942.92
2022-11-08T23:05:44.845Z,95934.63
2022-11-08T23:08:22.239Z,95937.61
2022-11-08T23:11:10.985Z,95934.08
2022-11-08T23:14:08.793Z,95940.05
2022-11-08T23:16:40.689Z,95938.72
2022-11-08T23:19:43.293Z,95933.84
2022-11-08T23:25:33.534Z,95934.84
2022-11-08T23:31:14.908Z,95940.48
2022-11-08T23:33:51.269Z,95940.25
2022-11-08T23:36:21.992Z,95942.48
2022-11-08T23:38:52.528Z,95937.61
2022-11-08T23:41:39.121Z,95949.56
2022-11-08T23:44:26.153Z,95944.38
2022-11-08T23:47:00.033Z,95944.47
2022-11-08T23:49:33.560Z,95948.67
2022-11-08T23:52:02.535Z,95951.11
2022-11-08T23:54:35.797Z,95954.88
2022-11-08T23:57:02.023Z,95958.40
2022-11-08T23:59:33.588Z,95956.44
